Spring Valley, CA

9:45 AM PDT on September 30, 2014 (GMT -0700)
Conrad/Estrella | Change Station
CLOSE
Current Station
Personal Weather Station
Location: Spring Valley, CA
Elevation: 564 ft
Nearby Weather Stations

Elev 564 ft 32.75 °N, 116.99 °W | Updated 7 minutes ago

Clear
Clear
75.6 °F
Feels Like 78 °F
N
2.2
Wind Variable Wind from ESE

Today
High -- | Low -- °F
--% Chance of Precip.
Yesterday
High -- | Low -- °F
Precip. -- in
6:41 AM 6:33 PM
Waxing Crescent, 38% visible
Pressure 29.89 in
Visibility 10.0 miles
Clouds Clear
Heat Index 78 °F
Dew Point 58 °F
Humidity 55%
Rainfall 0.00 in
Snow Depth 0 in , 0 in , 0 in
UV 4 out of 12
Pollen 5.10 out of 12
Ozone Good
PM2.5 Good
Flu Activity Not available.
METAR KSEE 301635Z AUTO 00000KT 10SM CLR 23/12 A2989 RMK AO2

More Conditions Fewer Conditions

Pressure 29.89 in
Visibility 10.0 miles
Clouds Clear
Heat Index 78 °F
Dew Point 58 °F
Humidity 55%
Rainfall 0.00 in
Snow Depth 0 in , 0 in , 0 in
UV 4 out of 12
Pollen 5.10 out of 12
Ozone Good
PM2.5 Good
Flu Activity Not available.
METAR KSEE 301635Z AUTO 00000KT 10SM CLR 23/12 A2989 RMK AO2

More Conditions Fewer Conditions

10-Day Weather Forecast

Almanac

Astronomy

Sep. 30, 2014 Rise Set
Actual Time 6:41 AM PDT 6:33 PM PDT
Civil Twilight 6:16 AM PDT 6:58 PM PDT
Nautical Twilight 5:48 AM PDT 7:26 PM PDT
Astronomical Twilight 5:19 AM PDT 7:55 PM PDT
Moon 12:39 PM PDT 11:22 PM PDT
Length of Visible Light 12h 41m
Length of Day
11h 52m
Tomorrow will be 1m 59s shorter.
Waxing Crescent, 38% of the Moon is Illuminated
Today
Waxing Crescent
Oct 1
First Quarter
Oct 8
Full
Oct 15
Last Quarter
Oct 23
New

Today's Extremes

State Highs State Lows

Community

WunderPhotos

Upload Photos

1,757,682 photos uploaded!

Nearby

Air Quality

  Air Quality AQ Index Pollutant
Yesterday Good
PM2.5
Yesterday Good
OZONE
Current Good
PM2.5
Current Good
OZONE
Tuesday Good
PM2.5
Tuesday Good
OZONE

Snow Depth

Station Depth Elevation
Horse Meadow 0 in 8631 ft
Sonora Pass 0 in 8800 ft
Forestdale Creek 0 in 8029 ft
Leavitt Meadows 1 in 7200 ft
Truckee #2 0 in 6400 ft

Earthquake Activity

City Distance Mag. Time & Date
No recent earthquake activity has been reported nearby.
Minimum magnitude displayed is 2.5.

Coastal Water Temperatures

Place Temperature
La Jolla, CA 68.0 °F
San Diego, CA 73.0 °F

Nearby Weather Stations